createdAt,value
2019-03-11T00:01:26.258Z,75.60
2019-03-11T00:03:58.615Z,75.60
2019-03-11T00:06:28.638Z,75.50
2019-03-11T00:09:01.111Z,75.60
2019-03-11T00:14:24.862Z,75.70
2019-03-11T00:16:59.770Z,75.80
2019-03-11T00:19:54.322Z,75.90
2019-03-11T00:22:24.237Z,75.90
2019-03-11T00:24:53.702Z,75.90
2019-03-11T00:27:23.552Z,75.80
2019-03-11T00:29:53.671Z,75.80
2019-03-11T00:32:23.318Z,75.70
2019-03-11T00:34:54.798Z,75.70
2019-03-11T00:37:25.082Z,75.40
2019-03-11T00:39:55.158Z,75.00
2019-03-11T00:42:26.048Z,75.50
2019-03-11T00:45:07.587Z,75.50
2019-03-11T00:50:13.561Z,75.60
2019-03-11T00:52:42.982Z,75.50
2019-03-11T00:55:12.524Z,75.80
2019-03-11T00:57:43.832Z,75.80
2019-03-11T01:00:21.397Z,75.50
2019-03-11T01:02:51.225Z,75.70
2019-03-11T01:05:20.874Z,75.70
2019-03-11T01:07:50.590Z,75.60
2019-03-11T01:10:19.903Z,75.70
2019-03-11T01:12:50.985Z,75.70
2019-03-11T01:15:20.650Z,75.60
2019-03-11T01:17:50.494Z,75.70
2019-03-11T01:20:20.342Z,75.70
2019-03-11T01:22:50.007Z,75.70
2019-03-11T01:25:19.370Z,75.60
2019-03-11T01:27:50.321Z,75.80
2019-03-11T01:30:36.018Z,75.80
2019-03-11T01:33:05.381Z,75.60
2019-03-11T01:35:35.199Z,76.70
2019-03-11T01:38:05.673Z,76.00
2019-03-11T01:40:35.223Z,75.70
2019-03-11T01:43:04.490Z,76.00
2019-03-11T01:45:35.099Z,76.00
2019-03-11T01:48:04.597Z,75.80
2019-03-11T01:50:34.637Z,75.80
2019-03-11T01:53:05.194Z,75.80
2019-03-11T01:55:34.756Z,75.50
2019-03-11T01:58:03.990Z,75.70
2019-03-11T02:00:33.728Z,75.70
2019-03-11T02:03:03.266Z,75.80
2019-03-11T02:05:38.715Z,75.80
2019-03-11T02:08:11.771Z,75.80
2019-03-11T02:10:41.517Z,75.90
2019-03-11T02:13:11.497Z,75.90
2019-03-11T02:15:40.867Z,75.90
2019-03-11T02:18:10.300Z,75.90
2019-03-11T02:20:40.478Z,75.90
2019-03-11T02:23:10.316Z,75.90
2019-03-11T02:25:40.028Z,76.00
2019-03-11T02:28:09.932Z,75.90
2019-03-11T02:30:39.359Z,76.00
2019-03-11T02:33:08.867Z,76.00
2019-03-11T02:35:39.094Z,76.10
2019-03-11T02:38:08.308Z,76.00
2019-03-11T02:40:38.352Z,76.00
2019-03-11T02:43:08.023Z,76.00
2019-03-11T02:45:38.809Z,75.90
2019-03-11T02:48:08.703Z,75.80
2019-03-11T02:50:38.546Z,75.80
2019-03-11T02:53:08.495Z,75.70
2019-03-11T02:55:37.946Z,75.70
2019-03-11T02:58:07.340Z,75.70
2019-03-11T03:00:36.701Z,75.60
2019-03-11T03:03:24.042Z,75.70
2019-03-11T03:06:12.870Z,75.70
2019-03-11T03:08:42.427Z,75.70
2019-03-11T03:11:13.114Z,75.70
2019-03-11T03:13:42.503Z,75.70
2019-03-11T03:16:12.617Z,75.70
2019-03-11T03:18:42.203Z,75.70
2019-03-11T03:21:12.177Z,75.70
2019-03-11T03:23:42.010Z,75.70
2019-03-11T03:26:12.983Z,75.80
2019-03-11T03:28:42.607Z,75.70
2019-03-11T03:31:11.904Z,75.70
2019-03-11T03:33:41.558Z,75.70
2019-03-11T03:36:11.150Z,75.80
2019-03-11T03:38:40.577Z,75.70
2019-03-11T03:41:11.386Z,75.70
2019-03-11T03:43:40.983Z,75.80
2019-03-11T03:46:18.563Z,75.80
2019-03-11T03:48:42.509Z,75.70
2019-03-11T03:51:12.530Z,75.90
2019-03-11T03:53:41.843Z,75.80
2019-03-11T03:56:11.060Z,75.90
2019-03-11T03:58:40.555Z,75.80
2019-03-11T04:01:09.837Z,75.80
2019-03-11T04:03:40.338Z,75.80
2019-03-11T04:06:10.119Z,75.90
2019-03-11T04:08:40.876Z,75.90
2019-03-11T04:11:11.483Z,75.90
2019-03-11T04:13:40.810Z,75.90
2019-03-11T04:16:11.656Z,75.90
2019-03-11T04:18:57.186Z,75.90
2019-03-11T04:21:28.739Z,75.90
2019-03-11T04:23:58.758Z,75.90
2019-03-11T04:26:29.650Z,75.90
2019-03-11T04:29:18.282Z,75.80
2019-03-11T04:31:55.935Z,75.90
2019-03-11T04:34:25.616Z,75.90
2019-03-11T04:36:56.572Z,76.00
2019-03-11T04:39:26.121Z,76.00
2019-03-11T04:41:55.743Z,76.10
2019-03-11T04:44:25.471Z,76.20
2019-03-11T04:46:55.157Z,76.20
2019-03-11T04:49:24.755Z,76.10
2019-03-11T04:51:54.289Z,76.20
2019-03-11T04:54:23.986Z,76.10
2019-03-11T04:56:53.771Z,76.10
2019-03-11T04:59:23.205Z,76.10
2019-03-11T05:01:52.918Z,76.10
2019-03-11T05:04:22.742Z,76.10
2019-03-11T05:06:51.980Z,76.10
2019-03-11T05:09:21.488Z,76.00
2019-03-11T05:11:51.027Z,76.10
2019-03-11T05:14:21.119Z,76.00
2019-03-11T05:16:50.388Z,76.10
2019-03-11T05:19:19.976Z,76.10
2019-03-11T05:21:50.096Z,76.00
2019-03-11T05:24:20.002Z,76.20
2019-03-11T05:26:49.861Z,76.10
2019-03-11T05:29:20.104Z,76.10
2019-03-11T05:31:49.803Z,76.10
2019-03-11T05:34:19.510Z,76.10
2019-03-11T05:36:49.030Z,76.10
2019-03-11T05:39:18.310Z,76.10
2019-03-11T05:41:48.197Z,76.10
2019-03-11T05:44:17.716Z,76.10
2019-03-11T05:46:47.399Z,76.10
2019-03-11T05:49:17.236Z,76.20
2019-03-11T05:51:47.256Z,76.10
2019-03-11T05:54:16.501Z,76.00
2019-03-11T05:56:45.969Z,76.00
2019-03-11T05:59:15.331Z,76.10
2019-03-11T06:01:44.655Z,76.10
2019-03-11T06:04:13.991Z,76.10
2019-03-11T06:06:43.274Z,76.00
2019-03-11T06:09:12.612Z,76.00
2019-03-11T06:11:42.266Z,76.10
2019-03-11T06:14:11.529Z,76.10
2019-03-11T06:16:41.514Z,76.00
2019-03-11T06:19:10.963Z,76.10
2019-03-11T06:21:45.561Z,76.20
2019-03-11T06:24:14.896Z,76.20
2019-03-11T06:26:44.436Z,75.80
2019-03-11T06:29:14.571Z,76.30
2019-03-11T06:31:44.288Z,76.30
2019-03-11T06:34:13.486Z,76.30
2019-03-11T06:36:43.995Z,76.20
2019-03-11T06:39:14.159Z,76.90
2019-03-11T06:41:44.509Z,76.10
2019-03-11T06:44:14.003Z,76.00
2019-03-11T06:46:46.248Z,76.00
2019-03-11T06:49:15.587Z,75.90
2019-03-11T06:51:45.270Z,75.90
2019-03-11T06:54:15.668Z,75.90
2019-03-11T06:56:44.801Z,75.90
2019-03-11T06:59:14.418Z,76.00
2019-03-11T07:01:44.597Z,76.10
2019-03-11T07:04:14.244Z,76.20
2019-03-11T07:06:43.841Z,76.20
2019-03-11T07:09:13.120Z,76.10
2019-03-11T07:11:42.815Z,76.10
2019-03-11T07:14:12.806Z,76.10
2019-03-11T07:16:42.785Z,75.50
2019-03-11T07:19:12.156Z,76.20
2019-03-11T07:21:41.986Z,76.20
2019-03-11T07:24:11.944Z,76.20
2019-03-11T07:26:41.519Z,76.20
2019-03-11T07:29:11.215Z,76.10
2019-03-11T07:31:40.841Z,76.20
2019-03-11T07:34:10.253Z,76.20
2019-03-11T07:36:40.059Z,76.20
2019-03-11T07:39:09.954Z,76.20
2019-03-11T07:41:40.179Z,76.10
2019-03-11T07:44:09.696Z,76.80
2019-03-11T07:46:39.485Z,76.10
2019-03-11T07:49:27.836Z,76.20
2019-03-11T07:55:26.986Z,76.20
2019-03-11T07:57:56.623Z,76.20
2019-03-11T08:00:26.694Z,76.30
2019-03-11T08:02:56.176Z,76.30
2019-03-11T08:05:26.218Z,76.50
2019-03-11T08:07:56.233Z,76.40
2019-03-11T08:10:44.899Z,76.50
2019-03-11T08:13:28.537Z,76.40
2019-03-11T08:15:57.918Z,77.20
2019-03-11T08:18:34.936Z,76.50
2019-03-11T08:21:00.170Z,76.40
2019-03-11T08:23:30.641Z,76.60
2019-03-11T08:26:00.532Z,76.50
2019-03-11T08:28:30.356Z,76.60
2019-03-11T08:31:01.127Z,76.50
2019-03-11T08:33:30.637Z,76.50
2019-03-11T08:36:00.958Z,76.50
2019-03-11T08:38:33.121Z,76.60
2019-03-11T08:41:02.788Z,77.20
2019-03-11T08:43:32.442Z,76.50
2019-03-11T08:46:02.731Z,76.70
2019-03-11T08:48:32.110Z,76.60
2019-03-11T08:51:01.884Z,76.70
2019-03-11T08:53:31.747Z,76.80
2019-03-11T08:56:03.482Z,76.80
2019-03-11T08:58:33.339Z,76.70
2019-03-11T09:01:03.017Z,76.70
2019-03-11T09:03:32.602Z,76.60
2019-03-11T09:06:03.311Z,76.50
2019-03-11T09:08:32.807Z,77.40
2019-03-11T09:11:02.388Z,76.60
2019-03-11T09:13:32.036Z,76.50
2019-03-11T09:16:02.054Z,76.50
2019-03-11T09:18:31.730Z,76.60
2019-03-11T09:21:01.639Z,76.60
2019-03-11T09:23:31.690Z,76.50
2019-03-11T09:26:01.088Z,76.70
2019-03-11T09:28:31.564Z,76.60
2019-03-11T09:31:01.220Z,76.70
2019-03-11T09:33:30.775Z,76.70
2019-03-11T09:36:00.754Z,76.60
2019-03-11T09:38:30.470Z,76.50
2019-03-11T09:41:00.677Z,76.50
2019-03-11T09:43:30.573Z,76.50
2019-03-11T09:46:00.493Z,76.50
2019-03-11T09:48:30.393Z,76.50
2019-03-11T09:51:01.357Z,76.60
2019-03-11T09:53:32.762Z,76.50
2019-03-11T09:56:02.622Z,76.50
2019-03-11T09:58:32.791Z,76.30
2019-03-11T10:01:02.495Z,76.40
2019-03-11T10:03:33.213Z,76.50
2019-03-11T10:06:03.670Z,76.50
2019-03-11T10:08:33.015Z,76.70
2019-03-11T10:11:02.333Z,76.60
2019-03-11T10:13:32.723Z,76.70
2019-03-11T10:16:02.191Z,76.60
2019-03-11T10:18:31.942Z,76.60
2019-03-11T10:21:01.902Z,76.70
2019-03-11T10:23:32.326Z,76.70
2019-03-11T10:26:02.536Z,76.70
2019-03-11T10:28:32.170Z,76.70
2019-03-11T10:31:01.995Z,76.60
2019-03-11T10:33:31.367Z,76.70
2019-03-11T10:36:01.388Z,76.60
2019-03-11T10:38:31.078Z,76.60
2019-03-11T10:41:01.108Z,76.50
2019-03-11T10:43:30.381Z,76.50
2019-03-11T10:46:00.036Z,76.50
2019-03-11T10:48:37.228Z,76.40
2019-03-11T10:51:00.416Z,76.30
2019-03-11T10:53:30.028Z,76.30
2019-03-11T10:56:00.204Z,76.30
2019-03-11T10:58:30.910Z,76.30
2019-03-11T11:01:01.024Z,76.30
2019-03-11T11:03:31.121Z,76.20
2019-03-11T11:06:02.463Z,76.10
2019-03-11T11:08:32.095Z,76.10
2019-03-11T11:11:02.291Z,76.20
2019-03-11T11:13:31.907Z,76.30
2019-03-11T11:16:01.683Z,76.50
2019-03-11T11:25:06.864Z,76.50
2019-03-11T11:27:36.647Z,76.50
2019-03-11T11:30:08.398Z,76.60
2019-03-11T11:32:38.121Z,76.60
2019-03-11T11:35:07.911Z,76.60
2019-03-11T11:37:37.998Z,76.90
2019-03-11T11:40:11.782Z,76.90
2019-03-11T11:42:42.021Z,77.00
2019-03-11T11:45:13.420Z,76.90
2019-03-11T11:47:43.018Z,76.80
2019-03-11T11:50:14.441Z,76.60
2019-03-11T11:52:44.600Z,76.60
2019-03-11T11:55:33.950Z,76.80
2019-03-11T11:58:03.722Z,76.70
2019-03-11T12:00:33.800Z,76.80
2019-03-11T12:03:03.552Z,76.70
2019-03-11T12:05:32.907Z,76.60
2019-03-11T12:08:02.202Z,76.60
2019-03-11T12:10:32.066Z,76.70
2019-03-11T12:13:01.523Z,76.70
2019-03-11T12:19:51.954Z,76.60
2019-03-11T12:22:21.404Z,76.50
2019-03-11T12:24:51.550Z,76.30
2019-03-11T12:27:21.188Z,76.30
2019-03-11T12:30:11.326Z,76.20
2019-03-11T12:36:15.555Z,75.90
2019-03-11T12:38:45.065Z,75.90
2019-03-11T12:41:15.194Z,75.80
2019-03-11T12:43:44.871Z,76.00
2019-03-11T12:46:14.137Z,76.30
2019-03-11T12:48:43.828Z,76.50
2019-03-11T12:51:13.295Z,76.30
2019-03-11T12:53:43.578Z,76.10
2019-03-11T12:56:13.376Z,76.00
2019-03-11T12:58:44.463Z,76.00
2019-03-11T13:01:14.814Z,75.90
2019-03-11T13:03:44.906Z,75.70
2019-03-11T13:06:14.674Z,75.80
2019-03-11T13:08:44.832Z,75.80
2019-03-11T13:11:14.180Z,76.00
2019-03-11T13:13:43.952Z,75.90
2019-03-11T13:16:32.359Z,75.90
2019-03-11T13:22:51.619Z,75.90
2019-03-11T13:25:21.168Z,75.70
2019-03-11T13:27:51.012Z,75.60
2019-03-11T13:30:20.782Z,75.60
2019-03-11T13:32:50.132Z,75.50
2019-03-11T13:35:19.941Z,75.50
2019-03-11T13:37:50.314Z,75.60
2019-03-11T13:40:19.672Z,75.60
2019-03-11T13:42:49.498Z,75.50
2019-03-11T13:45:19.628Z,75.50
2019-03-11T13:47:50.104Z,75.30
2019-03-11T13:50:19.688Z,75.30
2019-03-11T13:52:49.349Z,75.30
2019-03-11T13:55:18.783Z,75.20
2019-03-11T13:57:48.422Z,75.10
2019-03-11T14:00:18.353Z,75.10
2019-03-11T14:02:48.128Z,75.20
2019-03-11T14:05:17.566Z,75.30
2019-03-11T14:07:47.878Z,75.20
2019-03-11T14:10:17.681Z,75.30
2019-03-11T14:12:47.732Z,75.20
2019-03-11T14:15:17.158Z,75.30
2019-03-11T14:17:47.222Z,75.20
2019-03-11T14:20:17.400Z,75.20
2019-03-11T14:22:47.377Z,75.20
2019-03-11T14:25:17.741Z,75.20
2019-03-11T14:27:47.238Z,75.20
2019-03-11T14:30:16.993Z,75.10
2019-03-11T14:32:47.208Z,75.00
2019-03-11T14:35:16.954Z,74.90
2019-03-11T14:37:46.606Z,75.00
2019-03-11T14:40:15.922Z,75.00
2019-03-11T14:42:45.585Z,75.00
2019-03-11T14:45:16.050Z,75.00
2019-03-11T14:47:45.683Z,74.90
2019-03-11T14:50:15.601Z,74.90
2019-03-11T14:52:44.930Z,74.90
2019-03-11T14:55:14.428Z,75.00
2019-03-11T14:57:44.633Z,75.00
2019-03-11T15:00:18.218Z,75.10
2019-03-11T15:02:48.558Z,75.00
2019-03-11T15:05:18.663Z,75.10
2019-03-11T15:07:48.578Z,75.00
2019-03-11T15:10:20.012Z,75.00
2019-03-11T15:12:51.255Z,75.00
2019-03-11T15:15:20.969Z,75.00
2019-03-11T15:17:50.892Z,74.90
2019-03-11T15:20:20.913Z,75.00
2019-03-11T15:22:50.368Z,74.90
2019-03-11T15:25:20.931Z,75.00
2019-03-11T15:27:50.242Z,75.00
2019-03-11T15:30:19.893Z,75.10
2019-03-11T15:32:49.401Z,75.00
2019-03-11T15:35:19.143Z,75.00
2019-03-11T15:37:48.993Z,75.00
2019-03-11T15:40:19.614Z,74.90
2019-03-11T15:42:48.929Z,75.00
2019-03-11T15:45:18.285Z,75.10
2019-03-11T15:48:06.595Z,75.10
2019-03-11T15:50:54.879Z,75.00
2019-03-11T15:53:43.157Z,75.10
2019-03-11T15:56:31.742Z,75.10
2019-03-11T15:59:20.314Z,75.10
2019-03-11T16:02:08.646Z,75.10
2019-03-11T16:04:56.940Z,75.00
2019-03-11T16:07:45.043Z,74.80
2019-03-11T16:10:33.837Z,74.70
2019-03-11T16:13:21.970Z,74.70
2019-03-11T16:16:09.978Z,74.90
2019-03-11T16:18:58.638Z,75.00
2019-03-11T16:21:47.282Z,75.00
2019-03-11T16:24:35.824Z,75.00
2019-03-11T16:27:23.811Z,75.00
2019-03-11T16:30:13.203Z,74.90
2019-03-11T16:32:59.985Z,74.90
2019-03-11T16:38:26.871Z,75.00
2019-03-11T16:40:55.734Z,75.00
2019-03-11T16:43:43.739Z,75.00
2019-03-11T16:46:32.310Z,75.10
2019-03-11T16:49:20.300Z,75.10
2019-03-11T16:52:08.603Z,75.00
2019-03-11T16:54:57.198Z,75.10
2019-03-11T16:57:45.570Z,75.00
2019-03-11T17:03:45.188Z,74.90
2019-03-11T17:06:52.425Z,74.90
2019-03-11T17:09:40.462Z,74.80
2019-03-11T17:12:28.873Z,74.90
2019-03-11T17:15:17.201Z,74.90
2019-03-11T17:18:06.203Z,74.90
2019-03-11T17:20:54.566Z,75.10
2019-03-11T17:23:42.574Z,75.00
2019-03-11T17:26:30.624Z,75.00
2019-03-11T17:29:20.600Z,75.00
2019-03-11T17:32:08.862Z,75.00
2019-03-11T17:37:36.447Z,75.00
2019-03-11T17:40:18.143Z,74.80
2019-03-11T17:43:00.109Z,74.90
2019-03-11T17:48:29.282Z,74.90
2019-03-11T17:53:53.361Z,74.80
2019-03-11T17:56:32.496Z,74.80
2019-03-11T17:59:20.648Z,74.90
2019-03-11T18:02:08.987Z,75.00
2019-03-11T18:04:57.271Z,74.90
2019-03-11T18:07:26.380Z,74.90
2019-03-11T18:10:14.460Z,74.80
2019-03-11T18:13:02.869Z,74.90
2019-03-11T18:15:50.918Z,74.90
2019-03-11T18:18:39.210Z,75.00
2019-03-11T18:21:27.202Z,75.00
2019-03-11T18:24:15.275Z,75.00
2019-03-11T18:29:45.929Z,75.00
2019-03-11T18:35:13.836Z,74.90
2019-03-11T18:40:46.322Z,74.90
2019-03-11T18:46:19.050Z,74.90
2019-03-11T18:49:00.329Z,74.90
2019-03-11T18:54:30.156Z,74.80
2019-03-11T18:57:12.786Z,74.80
2019-03-11T18:59:41.518Z,74.70
2019-03-11T19:02:30.220Z,74.50
2019-03-11T19:05:18.447Z,74.60
2019-03-11T19:11:01.342Z,74.40
2019-03-11T19:13:49.520Z,74.30
2019-03-11T19:16:37.566Z,74.40
2019-03-11T19:19:25.726Z,74.50
2019-03-11T19:22:13.826Z,74.50
2019-03-11T19:25:02.194Z,74.60
2019-03-11T19:27:50.543Z,74.50
2019-03-11T19:30:38.933Z,74.50
2019-03-11T19:33:22.753Z,74.60
2019-03-11T19:38:53.759Z,74.60
2019-03-11T19:41:32.705Z,74.50
2019-03-11T19:44:21.373Z,74.60
2019-03-11T19:47:09.740Z,74.60
2019-03-11T19:50:00.467Z,74.70
2019-03-11T19:52:58.370Z,74.70
2019-03-11T19:58:19.778Z,74.80
2019-03-11T20:01:08.435Z,74.80
2019-03-11T20:03:56.939Z,74.80
2019-03-11T20:06:45.271Z,74.80
2019-03-11T20:09:34.449Z,74.80
2019-03-11T20:12:23.282Z,74.80
2019-03-11T20:15:11.403Z,74.80
2019-03-11T20:17:59.442Z,74.90
2019-03-11T20:20:50.592Z,74.90
2019-03-11T20:23:18.552Z,75.00
2019-03-11T20:26:06.730Z,75.00
2019-03-11T20:28:55.292Z,75.00
2019-03-11T20:31:43.625Z,75.10
2019-03-11T20:34:27.209Z,75.90
2019-03-11T20:39:58.972Z,75.30
2019-03-11T20:42:39.918Z,75.30
2019-03-11T20:45:23.981Z,75.10
2019-03-11T20:48:04.657Z,75.20
2019-03-11T20:50:46.383Z,75.10
2019-03-11T20:53:25.305Z,75.00
2019-03-11T20:56:13.681Z,74.90
2019-03-11T20:59:02.326Z,75.00
2019-03-11T21:01:50.635Z,75.00
2019-03-11T21:07:33.729Z,75.00
2019-03-11T21:13:50.029Z,75.00
2019-03-11T21:16:38.414Z,75.00
2019-03-11T21:19:27.334Z,75.00
2019-03-11T21:22:15.675Z,74.90
2019-03-11T21:24:45.314Z,74.90
2019-03-11T21:27:50.632Z,74.90
2019-03-11T21:30:23.429Z,75.70
2019-03-11T21:33:12.067Z,74.90
2019-03-11T21:36:00.434Z,74.90
2019-03-11T21:38:48.543Z,74.90
2019-03-11T21:41:36.986Z,75.00
2019-03-11T21:44:25.413Z,75.00
2019-03-11T21:47:13.494Z,75.00
2019-03-11T21:50:01.711Z,75.10
2019-03-11T21:52:50.352Z,75.00
2019-03-11T21:55:38.678Z,75.00
2019-03-11T21:58:27.356Z,75.00
2019-03-11T22:01:16.006Z,75.10
2019-03-11T22:04:04.091Z,75.20
2019-03-11T22:06:52.489Z,75.20
2019-03-11T22:09:40.872Z,75.10
2019-03-11T22:12:29.279Z,75.10
2019-03-11T22:15:17.796Z,75.10
2019-03-11T22:18:05.762Z,75.10
2019-03-11T22:20:56.090Z,75.00
2019-03-11T22:23:44.092Z,75.60
2019-03-11T22:26:32.202Z,75.20
2019-03-11T22:29:24.468Z,75.20
2019-03-11T22:32:11.704Z,75.20
2019-03-11T22:34:53.895Z,75.30
2019-03-11T22:40:25.747Z,75.70
2019-03-11T22:43:10.174Z,75.30
2019-03-11T22:48:41.874Z,75.30
2019-03-11T22:53:57.102Z,75.40
2019-03-11T22:56:45.461Z,75.30
2019-03-11T22:59:34.578Z,75.30
2019-03-11T23:05:04.324Z,75.40
2019-03-11T23:07:48.242Z,75.40
2019-03-11T23:15:45.104Z,75.40
2019-03-11T23:21:26.380Z,75.50
2019-03-11T23:24:14.935Z,75.50
2019-03-11T23:27:03.359Z,75.60
2019-03-11T23:29:51.370Z,75.60
2019-03-11T23:32:39.732Z,75.50
2019-03-11T23:35:28.520Z,75.40
2019-03-11T23:38:16.850Z,75.40
2019-03-11T23:41:05.508Z,75.40
2019-03-11T23:43:53.878Z,75.50
2019-03-11T23:46:41.934Z,75.60
2019-03-11T23:49:29.927Z,75.50
2019-03-11T23:52:18.250Z,75.70
2019-03-11T23:55:02.394Z,75.70
2019-03-11T23:57:44.115Z,75.70
